Flight Track Log - Related Links

Times and Time Zones

All times are in EDT time to prevent confusion due to time zone crossing. See the UAL4843 flight status page for this flight to view local times or setup timezone preferences in your user account.

Time Position Orientation Groundspeed Altitude Reporting Facility
EDT Latitude Longitude Course Direction KTS MPH feet Rate Location/Type
Sat 12:59:00 PM 40.5105 -74.4794 232° Southwest  Level Estimated
Sat 01:00:00 PM 40.4739 -74.5413 232° Southwest  Level Estimated
Sat 01:01:00 PM 40.4374 -74.6032 232° Southwest  Level Estimated
Sat 01:02:00 PM 40.4008 -74.6650 232° Southwest  Level Estimated
Sat 01:03:00 PM 40.3642 -74.7267 232° Southwest  Level Estimated
Sat 01:04:00 PM 40.3276 -74.7884 232° Southwest  Level Estimated
Sat 01:05:00 PM 40.2909 -74.8500 232° Southwest  Level Estimated
Sat 01:06:00 PM 40.2542 -74.9115 232° Southwest  Level Estimated
Sat 01:07:00 PM 40.2175 -74.9730 232° Southwest  Level Estimated
Sat 01:08:00 PM 40.1807 -75.0344 232° Southwest  Level Estimated
Sat 01:09:00 PM 40.1439 -75.0957 232° Southwest  Level Estimated
Sat 01:10:00 PM 40.1071 -75.1570 232° Southwest  Level Estimated
Sat 01:11:00 PM 40.0702 -75.2182 232° Southwest  Level Estimated
Sat 01:12:00 PM 40.0333 -75.2793 232° Southwest  Level Estimated
Sat 01:13:00 PM 39.9964 -75.3404 232° Southwest  Level Estimated
Sat 01:14:00 PM 39.9594 -75.4014 232° Southwest  Level Estimated
Sat 01:15:00 PM 39.9224 -75.4623 232° Southwest  Level Estimated
Sat 01:16:00 PM 39.8854 -75.5232 232° Southwest  Level Estimated
Sat 01:17:00 PM 39.8483 -75.5840 232° Southwest  Level Estimated
Sat 01:18:00 PM 39.8112 -75.6448 232° Southwest  Level Estimated
Sat 01:19:00 PM 39.7741 -75.7054 231° Southwest  Level Estimated
Sat 01:20:00 PM 39.7370 -75.7660 231° Southwest  Level Estimated
Sat 01:21:00 PM 39.6998 -75.8266 231° Southwest  Level Estimated
Sat 01:22:00 PM 39.6626 -75.8871 231° Southwest  Level Estimated
Sat 01:23:00 PM 39.6253 -75.9475 231° Southwest  Level Estimated
Sat 01:24:00 PM 39.5881 -76.0078 231° Southwest  Level Estimated
Sat 01:25:00 PM 39.5507 -76.0681 231° Southwest  Level Estimated
Sat 01:26:00 PM 39.5134 -76.1283 231° Southwest  Level Estimated
Sat 01:27:00 PM 39.4760 -76.1885 231° Southwest  Level Estimated
Sat 01:28:00 PM 39.4386 -76.2486 231° Southwest  Level Estimated
Sat 01:29:00 PM 39.4012 -76.3086 231° Southwest  Level Estimated
Sat 01:30:00 PM 39.3637 -76.3686 231° Southwest  Level Estimated
Sat 01:31:00 PM 39.3262 -76.4285 231° Southwest  Level Estimated
Sat 01:32:00 PM 39.2887 -76.4883 231° Southwest  Level Estimated
Sat 01:33:00 PM 39.2512 -76.5480 231° Southwest  Level Estimated
Sat 01:34:00 PM 39.2136 -76.6077 231° Southwest  Level Estimated
Sat 01:35:00 PM 39.1760 -76.6674 231° Southwest  Level Estimated
Sat 01:36:00 PM 39.1754 -76.6683 231° Southwest  Level Estimated
Sat 01:37:00 PM 39.1754 -76.6683 293° West  Level Estimated
Sat 01:38:00 PM 39.1754 -76.6683 293° West  Level Estimated
Sat 01:39:00 PM 39.1754 -76.6683 293° West  Level Estimated
Sat 01:40:00 PM 39.1754 -76.6683 293° West  Level Estimated
Sat 01:41:00 PM 39.1754 -76.6683 293° West  Level Estimated
Sat 01:42:00 PM 39.1754 -76.6683 293° West  Level Estimated
Sat 01:43:00 PM 39.1754 -76.6683 293° West  Level Estimated
Sat 01:44:00 PM 39.1754 -76.6683 293° West  Level Estimated
Sat 01:45:00 PM 39.1754 -76.6683 293° West  Level Estimated
Sat 01:46:00 PM 39.1754 -76.6683 293° West  Level Estimated
Sat 01:47:00 PM 39.1754 -76.6683 293° West  Level Estimated
Sat 01:48:00 PM 39.1754 -76.6683 293° West  Level Estimated
Sat 01:49:00 PM 39.1754 -76.6683 293° West  Level Estimated

Login

Don't have an account? Register now (free) for customized features, flight alerts, and more!